LNG Dream — C6VO5 — position and weather

sailwx.info

Track history (hours):
 
Tides and Currents Weather Stations Pressure Air Temp Water Temp Dewpoint Dewpoint Depression Visibility Wind Speed Wind Dir Waves Ship Positions

LNG Dream

Last reported at 2014-Jul-20 05:31 UTC. Time now 2014-Jul-31 19:46 UTC.
Position N 34°01' E 134°56'.
Warning: this ship's position is 11 days out of date.

Length 289.6 m; beam 49 m.

Type: Ship (hazmat cat A). MMSI: 309065000.

Date/timePositionNaut miles runAvg speedWind from/ knotsBaromVisibWave heightAir tempDewpointWater temp
2014-Jul-20 05:31N 34°01' E 134°56'1212.5
2014-Jul-20 04:33N 34°13' E 134°57'1414.3
2014-Jul-20 03:33N 34°27' E 135°03'9 9.0
2014-Jul-20 02:33N 34°36' E 135°03'1313.1
2014-Jul-20 01:33N 34°33' E 134°47'14 0.7
2014-Jul-19 05:26N 34°46' E 134°41'6 6.7
2014-Jul-19 04:33N 34°40' E 134°42'8 8.0
2014-Jul-19 03:32N 34°34' E 134°49'1212.4
2014-Jul-19 02:33N 34°36' E 135°03'6 6.0
2014-Jul-19 01:33N 34°31' E 135°08'1414.3
2014-Jul-19 00:33N 34°19' E 134°60'1010.5
2014-Jul-18 23:33N 34°08' E 135°00'7 7.2
2014-Jul-18 22:33N 34°01' E 135°00'  
Track history (hours):
 
Tides and Currents Weather Stations Pressure Air Temp Water Temp Dewpoint Dewpoint Depression Visibility Wind Speed Wind Dir Waves Ship Positions

LNG Dream

Last reported at 2014-Jul-20 05:31 UTC. Time now 2014-Jul-31 19:46 UTC.
Position N 34°01' E 134°56'.
Warning: this ship's position is 11 days out of date.

Length 289.6 m; beam 49 m.

Type: Ship (hazmat cat A). MMSI: 309065000.

Date/timePositionNaut miles runAvg speedWind from/ knotsBaromVisibWave heightAir tempDewpointWater temp
2014-Jul-20 05:31N 34°01' E 134°56'1212.5
2014-Jul-20 04:33N 34°13' E 134°57'1414.3
2014-Jul-20 03:33N 34°27' E 135°03'9 9.0
2014-Jul-20 02:33N 34°36' E 135°03'1313.1
2014-Jul-20 01:33N 34°33' E 134°47'14 0.7
2014-Jul-19 05:26N 34°46' E 134°41'6 6.7
2014-Jul-19 04:33N 34°40' E 134°42'8 8.0
2014-Jul-19 03:32N 34°34' E 134°49'1212.4
2014-Jul-19 02:33N 34°36' E 135°03'6 6.0
2014-Jul-19 01:33N 34°31' E 135°08'1414.3
2014-Jul-19 00:33N 34°19' E 134°60'1010.5
2014-Jul-18 23:33N 34°08' E 135°00'7 7.2
2014-Jul-18 22:33N 34°01' E 135°00'  

Dump ship's entire track history